createdAt,value
2023-12-17T00:00:19.665Z,12.45
2023-12-17T00:03:16.138Z,11.23
2023-12-17T00:05:31.358Z,11.65
2023-12-17T00:07:57.247Z,10.75
2023-12-17T00:10:23.160Z,11.38
2023-12-17T00:12:48.950Z,10.88
2023-12-17T00:15:15.078Z,11.25
2023-12-17T00:17:41.128Z,9.95
2023-12-17T00:20:08.173Z,10.55
2023-12-17T00:22:34.632Z,10.05
2023-12-17T00:25:01.317Z,10.75
2023-12-17T00:27:27.220Z,10.95
2023-12-17T00:29:53.052Z,9.73
2023-12-17T00:32:18.920Z,10.27
2023-12-17T00:34:45.052Z,10.27
2023-12-17T00:37:11.089Z,11.40
2023-12-17T00:39:36.944Z,10.88
2023-12-17T00:42:02.948Z,11.02
2023-12-17T00:44:29.450Z,10.15
2023-12-17T00:46:55.232Z,10.50
2023-12-17T00:49:21.213Z,11.13
2023-12-17T00:51:47.092Z,10.18
2023-12-17T00:54:13.008Z,10.40
2023-12-17T00:56:38.910Z,10.55
2023-12-17T00:59:04.755Z,10.32
2023-12-17T01:01:30.661Z,9.48
2023-12-17T01:03:56.676Z,9.00
2023-12-17T01:06:22.697Z,10.68
2023-12-17T01:08:49.070Z,9.93
2023-12-17T01:11:14.917Z,9.18
2023-12-17T01:13:40.738Z,10.27
2023-12-17T01:16:06.878Z,10.15
2023-12-17T01:18:35.813Z,10.10
2023-12-17T01:21:02.774Z,9.48
2023-12-17T01:23:28.678Z,10.23
2023-12-17T01:25:54.514Z,11.23
2023-12-17T01:28:20.301Z,10.80
2023-12-17T01:30:46.167Z,10.55
2023-12-17T01:33:12.165Z,10.20
2023-12-17T01:35:38.055Z,10.40
2023-12-17T01:38:03.895Z,10.20
2023-12-17T01:40:31.106Z,9.93
2023-12-17T01:42:57.391Z,10.70
2023-12-17T01:45:23.296Z,11.25
2023-12-17T01:47:49.846Z,9.38
2023-12-17T01:50:16.305Z,11.68
2023-12-17T01:52:42.651Z,10.07
2023-12-17T01:55:08.772Z,10.13
2023-12-17T01:57:34.646Z,9.85
2023-12-17T02:00:00.806Z,10.70
2023-12-17T02:02:26.889Z,10.30
2023-12-17T02:04:52.936Z,9.73
2023-12-17T02:07:18.780Z,10.40
2023-12-17T02:09:44.590Z,11.35
2023-12-17T02:12:26.234Z,10.38
2023-12-17T02:14:52.119Z,10.52
2023-12-17T02:17:21.262Z,10.18
2023-12-17T02:19:47.074Z,11.77
2023-12-17T02:22:12.949Z,9.70
2023-12-17T02:24:38.801Z,10.82
2023-12-17T02:27:04.705Z,10.93
2023-12-17T02:29:30.581Z,10.48
2023-12-17T02:31:56.380Z,10.40
2023-12-17T02:34:22.392Z,9.82
2023-12-17T02:36:48.241Z,9.25
2023-12-17T02:39:14.060Z,9.30
2023-12-17T02:41:39.908Z,9.15
2023-12-17T02:44:05.836Z,9.75
2023-12-17T02:46:32.148Z,9.77
2023-12-17T02:48:58.058Z,10.27
2023-12-17T02:51:23.956Z,10.80
2023-12-17T02:53:49.753Z,10.35
2023-12-17T02:56:15.564Z,10.05
2023-12-17T02:58:41.406Z,10.48
2023-12-17T03:01:07.245Z,11.32
2023-12-17T03:03:33.108Z,11.02
2023-12-17T03:05:59.010Z,9.57
2023-12-17T03:08:24.852Z,10.63
2023-12-17T03:10:50.642Z,10.85
2023-12-17T03:13:16.858Z,10.23
2023-12-17T03:15:42.683Z,9.95
2023-12-17T03:18:08.635Z,9.77
2023-12-17T03:20:34.561Z,9.88
2023-12-17T03:23:00.353Z,9.60
2023-12-17T03:25:26.487Z,9.35
2023-12-17T03:27:52.275Z,10.52
2023-12-17T03:30:18.296Z,11.43
2023-12-17T03:32:44.217Z,10.18
2023-12-17T03:35:10.205Z,9.25
2023-12-17T03:37:35.999Z,9.70
2023-12-17T03:40:01.795Z,9.50
2023-12-17T03:42:27.682Z,9.27
2023-12-17T03:44:53.523Z,9.45
2023-12-17T03:47:19.315Z,8.07
2023-12-17T03:49:45.146Z,10.18
2023-12-17T03:52:10.975Z,8.80
2023-12-17T03:54:36.834Z,8.85
2023-12-17T03:57:03.663Z,9.00
2023-12-17T03:59:29.530Z,8.18
2023-12-17T04:01:55.494Z,8.65
2023-12-17T04:04:21.305Z,10.50
2023-12-17T04:06:47.089Z,8.27
2023-12-17T04:09:12.977Z,7.90
2023-12-17T04:11:39.329Z,9.20
2023-12-17T04:14:05.160Z,9.70
2023-12-17T04:16:30.974Z,8.35
2023-12-17T04:18:56.912Z,8.57
2023-12-17T04:21:24.631Z,8.88
2023-12-17T04:23:50.525Z,8.32
2023-12-17T04:26:16.356Z,8.13
2023-12-17T04:28:42.179Z,8.38
2023-12-17T04:31:08.017Z,9.80
2023-12-17T04:33:34.538Z,9.25
2023-12-17T04:36:00.469Z,9.40
2023-12-17T04:38:26.219Z,9.52
2023-12-17T04:40:52.037Z,8.55
2023-12-17T04:43:17.818Z,9.55
2023-12-17T04:45:43.620Z,9.38
2023-12-17T04:48:09.567Z,9.75
2023-12-17T04:50:35.676Z,9.25
2023-12-17T04:53:01.526Z,9.18
2023-12-17T04:55:27.359Z,8.57
2023-12-17T04:57:53.185Z,9.27
2023-12-17T05:00:19.056Z,9.10
2023-12-17T05:02:44.944Z,9.77
2023-12-17T05:05:10.942Z,8.80
2023-12-17T05:07:37.612Z,9.02
2023-12-17T05:10:03.838Z,9.93
2023-12-17T05:12:29.757Z,9.38
2023-12-17T05:14:55.738Z,8.75
2023-12-17T05:17:21.656Z,9.18
2023-12-17T05:19:47.680Z,9.13
2023-12-17T05:22:13.566Z,8.52
2023-12-17T05:24:39.357Z,8.27
2023-12-17T05:27:05.216Z,8.88
2023-12-17T05:29:32.472Z,8.85
2023-12-17T05:31:58.280Z,8.65
2023-12-17T05:34:24.734Z,9.98
2023-12-17T05:36:50.985Z,8.93
2023-12-17T05:39:16.937Z,8.85
2023-12-17T05:41:42.923Z,8.82
2023-12-17T05:44:08.781Z,9.23
2023-12-17T05:46:34.589Z,9.60
2023-12-17T05:49:00.563Z,8.20
2023-12-17T05:51:26.550Z,7.97
2023-12-17T05:53:52.473Z,7.68
2023-12-17T05:56:18.289Z,8.30
2023-12-17T05:58:45.122Z,9.15
2023-12-17T06:01:12.152Z,8.85
2023-12-17T06:03:38.487Z,9.40
2023-12-17T06:06:05.854Z,8.77
2023-12-17T06:08:31.703Z,8.63
2023-12-17T06:10:57.558Z,8.57
2023-12-17T06:13:23.388Z,8.88
2023-12-17T06:15:49.243Z,9.00
2023-12-17T06:18:17.074Z,8.55
2023-12-17T06:20:43.331Z,8.95
2023-12-17T06:23:11.605Z,8.25
2023-12-17T06:25:37.799Z,8.55
2023-12-17T06:28:03.953Z,9.40
2023-12-17T06:30:31.420Z,8.60
2023-12-17T06:32:57.422Z,9.18
2023-12-17T06:35:23.623Z,8.57
2023-12-17T06:37:49.556Z,7.95
2023-12-17T06:40:15.819Z,7.70
2023-12-17T06:42:41.640Z,7.68
2023-12-17T06:45:08.641Z,8.45
2023-12-17T06:47:34.531Z,7.80
2023-12-17T06:50:00.586Z,6.80
2023-12-17T06:52:26.582Z,7.97
2023-12-17T06:54:52.487Z,8.18
2023-12-17T06:57:18.492Z,7.35
2023-12-17T06:59:44.500Z,6.93
2023-12-17T07:02:10.386Z,7.30
2023-12-17T07:04:36.175Z,7.50
2023-12-17T07:07:02.929Z,7.05
2023-12-17T07:09:28.795Z,6.30
2023-12-17T07:11:54.649Z,6.72
2023-12-17T07:14:20.447Z,6.55
2023-12-17T07:16:47.441Z,6.85
2023-12-17T07:19:13.416Z,6.53
2023-12-17T07:21:39.241Z,6.53
2023-12-17T07:24:05.258Z,7.30
2023-12-17T07:26:31.088Z,6.93
2023-12-17T07:28:56.868Z,7.20
2023-12-17T07:31:22.807Z,6.68
2023-12-17T07:33:48.789Z,7.38
2023-12-17T07:36:14.804Z,6.45
2023-12-17T07:38:40.620Z,7.00
2023-12-17T07:41:06.420Z,7.10
2023-12-17T07:43:32.327Z,5.82
2023-12-17T07:45:58.129Z,6.28
2023-12-17T07:48:24.099Z,5.85
2023-12-17T07:50:50.006Z,6.18
2023-12-17T07:53:15.886Z,6.07
2023-12-17T07:55:41.670Z,5.63
2023-12-17T07:58:08.448Z,5.43
2023-12-17T08:00:34.332Z,5.13
2023-12-17T08:03:00.475Z,5.07
2023-12-17T08:05:26.343Z,5.70
2023-12-17T08:07:52.151Z,5.30
2023-12-17T08:10:18.092Z,5.47
2023-12-17T08:12:44.437Z,5.28
2023-12-17T08:15:10.393Z,6.38
2023-12-17T08:17:36.344Z,5.18
2023-12-17T08:20:02.280Z,5.05
2023-12-17T08:22:28.219Z,5.47
2023-12-17T08:24:54.016Z,5.20
2023-12-17T08:27:20.019Z,5.03
2023-12-17T08:29:48.299Z,4.28
2023-12-17T08:32:14.619Z,4.35
2023-12-17T08:34:40.635Z,4.65
2023-12-17T08:37:06.493Z,5.40
2023-12-17T08:39:32.344Z,5.10
2023-12-17T08:41:58.329Z,4.95
2023-12-17T08:44:26.220Z,4.45
2023-12-17T08:46:52.440Z,5.07
2023-12-17T08:49:19.685Z,5.00
2023-12-17T08:51:46.122Z,4.85
2023-12-17T08:54:13.866Z,4.97
2023-12-17T08:56:40.452Z,4.03
2023-12-17T08:59:06.361Z,4.10
2023-12-17T09:01:32.240Z,4.15
2023-12-17T09:03:58.263Z,4.32
2023-12-17T09:06:24.301Z,4.07
2023-12-17T09:08:50.209Z,3.97
2023-12-17T09:11:16.288Z,4.55
2023-12-17T09:13:42.744Z,4.65
2023-12-17T09:16:08.763Z,4.13
2023-12-17T09:18:34.774Z,4.15
2023-12-17T09:21:01.056Z,4.03
2023-12-17T09:23:27.201Z,4.40
2023-12-17T09:25:53.185Z,4.07
2023-12-17T09:28:19.268Z,4.35
2023-12-17T09:30:57.507Z,3.40
2023-12-17T09:33:24.054Z,4.80
2023-12-17T09:35:50.423Z,3.63
2023-12-17T09:38:17.969Z,3.85
2023-12-17T09:40:47.151Z,3.85
2023-12-17T09:43:13.573Z,3.72
2023-12-17T09:45:41.682Z,3.75
2023-12-17T09:48:08.220Z,3.67
2023-12-17T09:50:34.226Z,4.38
2023-12-17T09:53:00.758Z,3.90
2023-12-17T09:55:26.804Z,3.65
2023-12-17T09:57:52.792Z,4.20
2023-12-17T10:00:34.305Z,4.05
2023-12-17T10:03:04.742Z,4.35
2023-12-17T10:05:31.559Z,4.07
2023-12-17T10:07:57.887Z,4.15
2023-12-17T10:10:24.065Z,4.10
2023-12-17T10:12:50.753Z,4.03
2023-12-17T10:15:18.340Z,3.78
2023-12-17T10:17:44.852Z,4.13
2023-12-17T10:20:11.323Z,3.70
2023-12-17T10:22:37.629Z,4.45
2023-12-17T10:25:03.866Z,3.60
2023-12-17T10:27:30.894Z,4.05
2023-12-17T10:30:24.636Z,4.30
2023-12-17T10:32:50.636Z,4.22
2023-12-17T10:35:17.346Z,3.95
2023-12-17T10:37:43.692Z,4.05
2023-12-17T10:40:11.921Z,3.85
2023-12-17T10:42:38.602Z,4.10
2023-12-17T10:45:05.602Z,3.83
2023-12-17T10:47:32.754Z,4.13
2023-12-17T10:49:58.826Z,3.80
2023-12-17T10:52:24.775Z,3.90
2023-12-17T10:54:50.863Z,4.57
2023-12-17T10:57:20.305Z,3.72
2023-12-17T10:59:58.607Z,4.22
2023-12-17T11:02:25.618Z,5.35
2023-12-17T11:04:51.553Z,4.45
2023-12-17T11:07:27.020Z,3.90
2023-12-17T11:10:00.996Z,4.05
2023-12-17T11:12:27.404Z,3.78
2023-12-17T11:14:54.358Z,4.05
2023-12-17T11:17:20.356Z,4.07
2023-12-17T11:20:06.588Z,3.92
2023-12-17T11:22:36.740Z,3.90
2023-12-17T11:25:03.213Z,3.53
2023-12-17T11:27:32.107Z,3.78
2023-12-17T11:29:58.288Z,4.43
2023-12-17T11:32:30.749Z,4.15
2023-12-17T11:34:57.421Z,4.35
2023-12-17T11:37:24.996Z,4.43
2023-12-17T11:39:51.629Z,4.50
2023-12-17T11:42:18.335Z,4.13
2023-12-17T11:44:51.230Z,3.90
2023-12-17T11:47:17.923Z,4.65
2023-12-17T11:49:44.366Z,4.25
2023-12-17T11:52:16.911Z,3.83
2023-12-17T11:54:43.700Z,4.32
2023-12-17T11:57:24.882Z,4.20
2023-12-17T11:59:51.334Z,3.97
2023-12-17T12:02:18.200Z,4.22
2023-12-17T12:04:44.814Z,4.25
2023-12-17T12:07:17.642Z,4.10
2023-12-17T12:09:47.175Z,3.85
2023-12-17T12:12:17.225Z,3.67
2023-12-17T12:14:48.068Z,4.05
2023-12-17T12:17:35.996Z,3.65
2023-12-17T12:20:01.973Z,4.03
2023-12-17T12:22:29.179Z,3.65
2023-12-17T12:24:57.763Z,3.75
2023-12-17T12:27:23.943Z,4.00
2023-12-17T12:30:06.173Z,4.28
2023-12-17T12:32:33.102Z,3.88
2023-12-17T12:34:59.480Z,4.18
2023-12-17T12:37:32.339Z,4.85
2023-12-17T12:40:03.110Z,5.40
2023-12-17T12:42:31.797Z,4.50
2023-12-17T12:44:57.928Z,4.22
2023-12-17T12:47:24.283Z,4.32
2023-12-17T12:49:50.477Z,4.13
2023-12-17T12:52:17.489Z,3.90
2023-12-17T12:54:44.063Z,3.72
2023-12-17T12:57:10.048Z,3.78
2023-12-17T12:59:36.067Z,4.03
2023-12-17T13:02:01.984Z,4.03
2023-12-17T13:04:27.989Z,4.60
2023-12-17T13:06:53.951Z,3.70
2023-12-17T13:09:21.455Z,3.90
2023-12-17T13:11:50.246Z,4.00
2023-12-17T13:14:17.713Z,4.75
2023-12-17T13:16:43.821Z,5.57
2023-12-17T13:19:14.684Z,4.95
2023-12-17T13:21:41.718Z,4.43
2023-12-17T13:24:07.710Z,3.55
2023-12-17T13:26:33.598Z,3.67
2023-12-17T13:29:09.312Z,3.97
2023-12-17T13:31:36.128Z,3.30
2023-12-17T13:34:02.595Z,3.95
2023-12-17T13:36:30.034Z,3.83
2023-12-17T13:38:56.087Z,3.47
2023-12-17T13:41:22.013Z,4.10
2023-12-17T13:43:49.689Z,3.05
2023-12-17T13:46:16.391Z,3.83
2023-12-17T13:48:42.392Z,3.40
2023-12-17T13:51:08.411Z,3.20
2023-12-17T13:53:34.260Z,3.22
2023-12-17T13:56:00.204Z,3.53
2023-12-17T13:58:27.381Z,3.10
2023-12-17T14:01:02.589Z,3.40
2023-12-17T14:03:29.104Z,4.32
2023-12-17T14:05:55.505Z,4.05
2023-12-17T14:08:21.522Z,3.85
2023-12-17T14:10:47.416Z,4.10
2023-12-17T14:13:13.303Z,4.75
2023-12-17T14:15:39.192Z,4.35
2023-12-17T14:18:05.776Z,4.47
2023-12-17T14:20:31.754Z,4.10
2023-12-17T14:22:57.897Z,4.80
2023-12-17T14:25:23.983Z,5.68
2023-12-17T14:27:49.912Z,4.10
2023-12-17T14:30:23.522Z,3.40
2023-12-17T14:32:49.569Z,3.90
2023-12-17T14:35:15.633Z,3.80
2023-12-17T14:37:41.632Z,3.42
2023-12-17T14:40:08.748Z,3.78
2023-12-17T14:42:35.374Z,3.63
2023-12-17T14:45:01.404Z,4.18
2023-12-17T14:47:27.455Z,4.18
2023-12-17T14:49:53.784Z,4.00
2023-12-17T14:52:19.728Z,4.35
2023-12-17T14:54:45.789Z,4.75
2023-12-17T14:57:11.697Z,4.60
2023-12-17T14:59:38.155Z,4.30
2023-12-17T15:02:04.565Z,3.60
2023-12-17T15:04:31.345Z,3.70
2023-12-17T15:06:57.241Z,4.38
2023-12-17T15:09:27.461Z,4.63
2023-12-17T15:11:53.910Z,3.72
2023-12-17T15:14:19.880Z,5.32
2023-12-17T15:16:45.970Z,4.90
2023-12-17T15:19:12.109Z,5.22
2023-12-17T15:21:38.161Z,4.50
2023-12-17T15:24:04.264Z,4.63
2023-12-17T15:26:30.705Z,5.60
2023-12-17T15:28:59.687Z,4.03
2023-12-17T15:31:25.912Z,3.92
2023-12-17T15:33:52.828Z,4.63
2023-12-17T15:36:20.642Z,4.47
2023-12-17T15:38:46.586Z,3.88
2023-12-17T15:41:21.991Z,4.90
2023-12-17T15:43:51.607Z,3.67
2023-12-17T15:46:31.325Z,4.18
2023-12-17T15:48:57.882Z,3.47
2023-12-17T15:51:26.147Z,4.32
2023-12-17T15:53:54.401Z,3.70
2023-12-17T15:56:21.422Z,3.90
2023-12-17T15:59:00.276Z,4.10
2023-12-17T16:01:26.111Z,4.10
2023-12-17T16:03:53.937Z,3.97
2023-12-17T16:06:21.657Z,3.78
2023-12-17T16:08:47.605Z,4.00
2023-12-17T16:11:13.552Z,4.00
2023-12-17T16:13:39.473Z,3.80
2023-12-17T16:16:05.574Z,4.43
2023-12-17T16:18:32.214Z,4.50
2023-12-17T16:20:58.241Z,4.05
2023-12-17T16:23:25.216Z,4.00
2023-12-17T16:25:51.298Z,3.58
2023-12-17T16:28:17.346Z,4.38
2023-12-17T16:30:59.753Z,3.42
2023-12-17T16:33:25.925Z,3.67
2023-12-17T16:35:54.004Z,3.90
2023-12-17T16:38:19.920Z,3.95
2023-12-17T16:40:47.312Z,3.38
2023-12-17T16:43:13.306Z,3.72
2023-12-17T16:45:44.569Z,3.78
2023-12-17T16:48:12.140Z,3.20
2023-12-17T16:50:38.176Z,3.08
2023-12-17T16:53:04.310Z,4.35
2023-12-17T16:55:30.151Z,3.70
2023-12-17T16:57:56.093Z,3.05
2023-12-17T17:00:28.383Z,2.90
2023-12-17T17:02:55.340Z,5.20
2023-12-17T17:05:22.511Z,4.40
2023-12-17T17:07:48.912Z,4.40
2023-12-17T17:10:14.947Z,3.33
2023-12-17T17:12:41.089Z,4.88
2023-12-17T17:15:08.783Z,3.90
2023-12-17T17:17:34.767Z,3.72
2023-12-17T17:20:00.813Z,3.80
2023-12-17T17:22:26.760Z,4.53
2023-12-17T17:24:52.738Z,3.53
2023-12-17T17:27:18.650Z,3.40
2023-12-17T17:30:10.233Z,3.65
2023-12-17T17:32:36.820Z,3.00
2023-12-17T17:35:05.658Z,3.30
2023-12-17T17:37:32.538Z,3.60
2023-12-17T17:39:59.023Z,3.58
2023-12-17T17:42:24.946Z,2.78
2023-12-17T17:44:50.788Z,3.17
2023-12-17T17:47:16.671Z,3.05
2023-12-17T17:49:43.374Z,2.85
2023-12-17T17:52:09.349Z,3.03
2023-12-17T17:54:35.327Z,2.35
2023-12-17T17:57:01.328Z,3.10
2023-12-17T17:59:36.146Z,3.10
2023-12-17T18:02:02.083Z,3.45
2023-12-17T18:04:27.949Z,2.83
2023-12-17T18:06:53.832Z,3.40
2023-12-17T18:09:20.020Z,3.58
2023-12-17T18:11:46.114Z,3.50
2023-12-17T18:14:12.439Z,3.45
2023-12-17T18:16:38.488Z,3.13
2023-12-17T18:19:04.544Z,2.90
2023-12-17T18:21:32.148Z,3.20
2023-12-17T18:23:58.351Z,3.20
2023-12-17T18:26:24.515Z,3.55
2023-12-17T18:28:50.683Z,3.40
2023-12-17T18:31:16.681Z,3.25
2023-12-17T18:33:44.187Z,3.53
2023-12-17T18:36:10.652Z,3.20
2023-12-17T18:38:42.235Z,3.20
2023-12-17T18:41:08.096Z,3.17
2023-12-17T18:43:33.962Z,3.30
2023-12-17T18:45:59.761Z,2.85
2023-12-17T18:48:25.842Z,2.97
2023-12-17T18:50:51.802Z,3.15
2023-12-17T18:53:17.796Z,3.28
2023-12-17T18:55:43.770Z,3.92
2023-12-17T18:58:09.584Z,3.20
2023-12-17T19:00:41.075Z,2.85
2023-12-17T19:03:08.896Z,2.70
2023-12-17T19:05:36.581Z,3.03
2023-12-17T19:08:03.518Z,2.92
2023-12-17T19:10:29.532Z,2.90
2023-12-17T19:12:55.553Z,2.85
2023-12-17T19:15:22.956Z,2.40
2023-12-17T19:17:49.604Z,3.10
2023-12-17T19:20:16.581Z,2.47
2023-12-17T19:22:42.750Z,3.05
2023-12-17T19:25:09.453Z,2.83
2023-12-17T19:27:35.366Z,3.15
2023-12-17T19:30:06.803Z,2.53
2023-12-17T19:32:32.829Z,3.55
2023-12-17T19:34:58.827Z,3.55
2023-12-17T19:37:24.893Z,2.75
2023-12-17T19:39:53.735Z,2.83
2023-12-17T19:42:19.739Z,3.42
2023-12-17T19:44:45.703Z,3.13
2023-12-17T19:47:11.554Z,2.95
2023-12-17T19:49:37.573Z,3.58
2023-12-17T19:52:03.818Z,2.78
2023-12-17T19:54:29.708Z,3.33
2023-12-17T19:56:56.377Z,3.67
2023-12-17T19:59:22.347Z,3.95
2023-12-17T20:01:48.536Z,3.25
2023-12-17T20:04:17.403Z,2.80
2023-12-17T20:06:43.351Z,2.63
2023-12-17T20:09:09.378Z,3.28
2023-12-17T20:11:35.558Z,3.60
2023-12-17T20:14:01.414Z,3.20
2023-12-17T20:16:27.302Z,3.67
2023-12-17T20:18:53.287Z,3.20
2023-12-17T20:21:21.377Z,2.67
2023-12-17T20:23:49.791Z,2.72
2023-12-17T20:26:15.762Z,2.20
2023-12-17T20:28:41.637Z,2.03
2023-12-17T20:31:09.544Z,2.85
2023-12-17T20:33:36.634Z,2.70
2023-12-17T20:36:04.348Z,3.10
2023-12-17T20:38:30.265Z,3.08
2023-12-17T20:40:56.050Z,3.38
2023-12-17T20:43:21.845Z,2.83
2023-12-17T20:45:47.925Z,2.78
2023-12-17T20:48:14.300Z,3.00
2023-12-17T20:50:41.050Z,3.10
2023-12-17T20:53:08.253Z,2.75
2023-12-17T20:55:34.546Z,2.70
2023-12-17T20:58:01.568Z,2.53
2023-12-17T21:00:28.596Z,2.90
2023-12-17T21:02:54.564Z,2.92
2023-12-17T21:05:21.298Z,2.65
2023-12-17T21:07:49.096Z,2.63
2023-12-17T21:10:19.858Z,2.70
2023-12-17T21:15:11.839Z,3.10
2023-12-17T21:17:37.679Z,2.30
2023-12-17T21:20:03.777Z,3.00
2023-12-17T21:22:29.611Z,2.58
2023-12-17T21:24:58.561Z,2.63
2023-12-17T21:27:25.473Z,2.88
2023-12-17T21:29:55.577Z,4.05
2023-12-17T21:32:21.538Z,3.17
2023-12-17T21:34:47.798Z,2.45
2023-12-17T21:37:13.778Z,2.80
2023-12-17T21:39:40.705Z,3.42
2023-12-17T21:42:06.658Z,3.33
2023-12-17T21:44:32.538Z,2.38
2023-12-17T21:46:58.361Z,2.72
2023-12-17T21:49:24.248Z,3.00
2023-12-17T21:51:50.091Z,2.67
2023-12-17T21:54:16.001Z,3.20
2023-12-17T21:56:42.037Z,2.63
2023-12-17T21:59:07.867Z,2.58
2023-12-17T22:01:33.832Z,3.10
2023-12-17T22:03:59.972Z,2.53
2023-12-17T22:06:26.120Z,2.90
2023-12-17T22:08:58.288Z,2.70
2023-12-17T22:11:29.557Z,3.28
2023-12-17T22:13:55.450Z,2.63
2023-12-17T22:16:21.289Z,2.92
2023-12-17T22:18:47.214Z,2.13
2023-12-17T22:21:19.696Z,2.55
2023-12-17T22:23:46.268Z,2.30
2023-12-17T22:26:12.573Z,2.45
2023-12-17T22:28:38.409Z,2.85
2023-12-17T22:31:04.438Z,2.20
2023-12-17T22:33:30.495Z,2.25
2023-12-17T22:35:56.411Z,2.85
2023-12-17T22:38:22.220Z,2.42
2023-12-17T22:40:49.123Z,2.92
2023-12-17T22:43:15.430Z,2.40
2023-12-17T22:45:41.353Z,3.63
2023-12-17T22:48:07.451Z,2.15
2023-12-17T22:50:33.327Z,2.00
2023-12-17T22:52:59.455Z,2.15
2023-12-17T22:55:25.349Z,2.60
2023-12-17T22:57:51.238Z,2.65
2023-12-17T23:00:17.166Z,2.38
2023-12-17T23:02:43.216Z,2.17
2023-12-17T23:05:09.067Z,2.25
2023-12-17T23:07:35.063Z,2.60
2023-12-17T23:10:00.904Z,2.42
2023-12-17T23:12:26.839Z,2.15
2023-12-17T23:14:52.653Z,2.63
2023-12-17T23:17:18.523Z,1.95
2023-12-17T23:19:44.719Z,2.65
2023-12-17T23:22:10.509Z,2.08
2023-12-17T23:24:36.507Z,2.30
2023-12-17T23:27:02.799Z,2.65
2023-12-17T23:29:31.680Z,2.10
2023-12-17T23:31:58.329Z,2.38
2023-12-17T23:34:24.320Z,2.47
2023-12-17T23:36:50.180Z,2.60
2023-12-17T23:39:16.000Z,2.97
2023-12-17T23:41:41.846Z,2.60
2023-12-17T23:44:07.736Z,3.33
2023-12-17T23:46:33.602Z,2.55
2023-12-17T23:48:59.446Z,2.50
2023-12-17T23:51:25.402Z,2.55
2023-12-17T23:53:51.453Z,2.78
2023-12-17T23:56:18.718Z,2.17
2023-12-17T23:58:44.767Z,2.80
